Terminal Aerodrome Forecast
Issued by NWS

Home | Current Version | Previous Version | Text Only | Print | Product List | Glossary On
Versions: 1 2 3 4 5 6 7 8 9 10 11 12 13 14 15 16 17
000
FTUS41 KBOX 241125
TAFBAF
TAF
KBAF 241125Z 2412/2512 34007KT 6SM -SHRA OVC040
     FM241300 34008KT P6SM OVC040
     FM241600 34010G18KT P6SM BKN035
     FM242100 34009KT P6SM BKN035
     FM250300 32006KT P6SM SCT060=

USA.gov is the U.S. government's official web portal to all federal, state and local government web resources and services.